sensor_id;sensor_type;location;lat;lon;timestamp;pressure;altitude;pressure_sealevel;temperature;humidity
32933;BME280;19444;50.518;10.870;2022-09-09T00:04:35;96179.56;;;10.99;100.00
32933;BME280;19444;50.518;10.870;2022-09-09T00:07:51;96186.81;;;10.73;100.00
32933;BME280;19444;50.518;10.870;2022-09-09T00:10:59;96184.47;;;10.89;100.00
32933;BME280;19444;50.518;10.870;2022-09-09T00:14:00;96185.53;;;11.05;100.00
32933;BME280;19444;50.518;10.870;2022-09-09T00:17:09;96180.03;;;10.93;100.00
32933;BME280;19444;50.518;10.870;2022-09-09T00:23:30;96174.00;;;11.22;100.00
32933;BME280;19444;50.518;10.870;2022-09-09T00:29:54;96174.34;;;10.77;100.00
32933;BME280;19444;50.518;10.870;2022-09-09T00:33:01;96176.09;;;10.81;100.00
32933;BME280;19444;50.518;10.870;2022-09-09T00:36:00;96173.09;;;10.57;100.00
32933;BME280;19444;50.518;10.870;2022-09-09T00:39:01;96173.88;;;10.92;100.00
32933;BME280;19444;50.518;10.870;2022-09-09T00:42:17;96163.03;;;10.89;100.00
32933;BME280;19444;50.518;10.870;2022-09-09T00:48:12;96158.59;;;10.67;100.00
32933;BME280;19444;50.518;10.870;2022-09-09T00:51:17;96167.28;;;10.55;100.00
32933;BME280;19444;50.518;10.870;2022-09-09T00:57:39;96160.97;;;10.68;100.00
32933;BME280;19444;50.518;10.870;2022-09-09T01:00:46;96159.56;;;10.62;100.00
32933;BME280;19444;50.518;10.870;2022-09-09T01:03:54;96158.78;;;10.44;100.00
32933;BME280;19444;50.518;10.870;2022-09-09T01:07:08;96160.97;;;10.60;100.00
32933;BME280;19444;50.518;10.870;2022-09-09T01:10:46;96158.47;;;10.63;100.00
32933;BME280;19444;50.518;10.870;2022-09-09T01:13:48;96166.63;;;10.67;100.00
32933;BME280;19444;50.518;10.870;2022-09-09T01:16:49;96157.50;;;10.68;100.00
32933;BME280;19444;50.518;10.870;2022-09-09T01:20:23;96161.47;;;10.53;100.00
32933;BME280;19444;50.518;10.870;2022-09-09T01:27:06;96164.44;;;10.43;100.00
32933;BME280;19444;50.518;10.870;2022-09-09T01:30:14;96164.59;;;10.64;100.00
32933;BME280;19444;50.518;10.870;2022-09-09T01:33:17;96157.50;;;10.50;100.00
32933;BME280;19444;50.518;10.870;2022-09-09T01:36:32;96163.03;;;10.45;100.00
32933;BME280;19444;50.518;10.870;2022-09-09T01:39:31;96157.16;;;10.87;100.00
32933;BME280;19444;50.518;10.870;2022-09-09T01:42:28;96155.75;;;10.89;100.00
32933;BME280;19444;50.518;10.870;2022-09-09T01:45:25;96160.63;;;10.78;100.00
32933;BME280;19444;50.518;10.870;2022-09-09T01:48:24;96156.06;;;10.88;100.00
32933;BME280;19444;50.518;10.870;2022-09-09T01:51:21;96155.78;;;10.63;100.00
32933;BME280;19444;50.518;10.870;2022-09-09T01:54:21;96158.44;;;10.80;100.00
32933;BME280;19444;50.518;10.870;2022-09-09T01:58:01;96160.97;;;10.60;100.00
32933;BME280;19444;50.518;10.870;2022-09-09T02:01:16;96162.06;;;10.67;100.00
32933;BME280;19444;50.518;10.870;2022-09-09T02:04:39;96162.84;;;10.50;100.00
32933;BME280;19444;50.518;10.870;2022-09-09T02:07:48;96164.09;;;10.27;100.00
32933;BME280;19444;50.518;10.870;2022-09-09T02:14:22;96160.81;;;10.56;100.00
32933;BME280;19444;50.518;10.870;2022-09-09T02:17:33;96161.75;;;10.34;100.00
32933;BME280;19444;50.518;10.870;2022-09-09T02:20:33;96166.03;;;10.52;100.00
32933;BME280;19444;50.518;10.870;2022-09-09T02:23:33;96160.34;;;10.80;100.00
32933;BME280;19444;50.518;10.870;2022-09-09T02:26:32;96151.84;;;10.61;100.00
32933;BME280;19444;50.518;10.870;2022-09-09T02:29:39;96161.28;;;10.84;100.00
32933;BME280;19444;50.518;10.870;2022-09-09T02:32:38;96162.84;;;10.76;100.00
32933;BME280;19444;50.518;10.870;2022-09-09T02:35:37;96160.63;;;10.96;100.00
32933;BME280;19444;50.518;10.870;2022-09-09T02:38:40;96158.47;;;10.72;100.00
32933;BME280;19444;50.518;10.870;2022-09-09T02:41:40;96156.06;;;10.88;100.00
32933;BME280;19444;50.518;10.870;2022-09-09T02:44:37;96158.78;;;10.79;100.00
32933;BME280;19444;50.518;10.870;2022-09-09T02:48:18;96162.53;;;10.78;100.00
32933;BME280;19444;50.518;10.870;2022-09-09T02:51:47;96153.25;;;10.75;100.00
32933;BME280;19444;50.518;10.870;2022-09-09T02:54:50;96155.56;;;11.03;100.00
32933;BME280;19444;50.518;10.870;2022-09-09T02:57:52;96151.16;;;11.07;100.00
32933;BME280;19444;50.518;10.870;2022-09-09T03:00:51;96148.53;;;10.72;100.00
32933;BME280;19444;50.518;10.870;2022-09-09T03:03:49;96151.00;;;10.86;100.00
32933;BME280;19444;50.518;10.870;2022-09-09T03:06:46;96145.66;;;10.86;100.00
32933;BME280;19444;50.518;10.870;2022-09-09T03:09:44;96132.69;;;10.97;100.00
32933;BME280;19444;50.518;10.870;2022-09-09T03:12:42;96153.53;;;10.91;100.00
32933;BME280;19444;50.518;10.870;2022-09-09T03:15:39;96142.19;;;10.86;100.00
32933;BME280;19444;50.518;10.870;2022-09-09T03:18:36;96151.81;;;10.87;100.00
32933;BME280;19444;50.518;10.870;2022-09-09T03:21:33;96146.09;;;11.05;100.00
32933;BME280;19444;50.518;10.870;2022-09-09T03:24:30;96147.81;;;11.19;100.00
32933;BME280;19444;50.518;10.870;2022-09-09T03:27:27;96147.16;;;11.22;100.00
32933;BME280;19444;50.518;10.870;2022-09-09T03:30:26;96139.47;;;11.03;100.00
32933;BME280;19444;50.518;10.870;2022-09-09T03:33:23;96154.31;;;11.00;100.00
32933;BME280;19444;50.518;10.870;2022-09-09T03:36:20;96140.81;;;11.44;100.00
32933;BME280;19444;50.518;10.870;2022-09-09T03:39:17;96148.00;;;11.05;100.00
32933;BME280;19444;50.518;10.870;2022-09-09T03:42:14;96153.78;;;11.24;100.00
32933;BME280;19444;50.518;10.870;2022-09-09T03:45:15;96142.56;;;11.31;100.00
32933;BME280;19444;50.518;10.870;2022-09-09T03:48:11;96147.44;;;11.37;100.00
32933;BME280;19444;50.518;10.870;2022-09-09T03:51:08;96144.31;;;11.27;100.00
32933;BME280;19444;50.518;10.870;2022-09-09T03:54:05;96134.72;;;11.17;100.00
32933;BME280;19444;50.518;10.870;2022-09-09T03:57:05;96144.16;;;11.23;100.00
32933;BME280;19444;50.518;10.870;2022-09-09T04:00:07;96126.16;;;11.24;100.00
32933;BME280;19444;50.518;10.870;2022-09-09T04:03:04;96130.91;;;11.27;100.00
32933;BME280;19444;50.518;10.870;2022-09-09T04:06:04;96135.72;;;11.42;100.00
32933;BME280;19444;50.518;10.870;2022-09-09T04:09:02;96138.94;;;11.35;100.00
32933;BME280;19444;50.518;10.870;2022-09-09T04:11:59;96139.19;;;11.43;100.00
32933;BME280;19444;50.518;10.870;2022-09-09T04:14:56;96131.03;;;11.39;100.00
32933;BME280;19444;50.518;10.870;2022-09-09T04:17:53;96135.94;;;11.37;100.00
32933;BME280;19444;50.518;10.870;2022-09-09T04:20:52;96124.19;;;11.50;100.00
32933;BME280;19444;50.518;10.870;2022-09-09T04:23:49;96129.41;;;11.47;100.00
32933;BME280;19444;50.518;10.870;2022-09-09T04:26:46;96129.03;;;11.65;100.00
32933;BME280;19444;50.518;10.870;2022-09-09T04:29:43;96130.59;;;11.66;100.00
32933;BME280;19444;50.518;10.870;2022-09-09T04:32:41;96123.28;;;11.84;100.00
32933;BME280;19444;50.518;10.870;2022-09-09T04:35:39;96133.19;;;11.54;100.00
32933;BME280;19444;50.518;10.870;2022-09-09T04:38:40;96137.16;;;11.86;100.00
32933;BME280;19444;50.518;10.870;2022-09-09T04:41:36;96137.81;;;11.75;100.00
32933;BME280;19444;50.518;10.870;2022-09-09T04:44:34;96137.25;;;11.99;100.00
32933;BME280;19444;50.518;10.870;2022-09-09T04:47:31;96126.69;;;11.55;100.00
32933;BME280;19444;50.518;10.870;2022-09-09T04:50:28;96139.22;;;11.89;100.00
32933;BME280;19444;50.518;10.870;2022-09-09T04:53:25;96134.47;;;11.86;100.00
32933;BME280;19444;50.518;10.870;2022-09-09T04:56:22;96135.06;;;11.92;100.00
32933;BME280;19444;50.518;10.870;2022-09-09T04:59:20;96135.75;;;11.89;100.00
32933;BME280;19444;50.518;10.870;2022-09-09T05:02:18;96143.53;;;11.73;100.00
32933;BME280;19444;50.518;10.870;2022-09-09T05:05:15;96145.03;;;11.91;100.00
32933;BME280;19444;50.518;10.870;2022-09-09T05:08:13;96146.41;;;11.98;100.00
32933;BME280;19444;50.518;10.870;2022-09-09T05:11:24;96143.94;;;12.13;100.00
32933;BME280;19444;50.518;10.870;2022-09-09T05:14:22;96149.97;;;12.10;100.00
32933;BME280;19444;50.518;10.870;2022-09-09T05:17:19;96153.50;;;12.02;100.00
32933;BME280;19444;50.518;10.870;2022-09-09T05:20:16;96158.41;;;12.00;100.00
32933;BME280;19444;50.518;10.870;2022-09-09T05:23:13;96156.50;;;12.01;100.00
32933;BME280;19444;50.518;10.870;2022-09-09T05:26:18;96160.06;;;12.13;100.00
32933;BME280;19444;50.518;10.870;2022-09-09T05:29:15;96157.38;;;12.13;100.00
32933;BME280;19444;50.518;10.870;2022-09-09T05:32:15;96152.94;;;12.17;100.00
32933;BME280;19444;50.518;10.870;2022-09-09T05:35:13;96152.41;;;12.24;100.00
32933;BME280;19444;50.518;10.870;2022-09-09T05:38:10;96154.47;;;12.27;100.00
32933;BME280;19444;50.518;10.870;2022-09-09T05:41:07;96150.22;;;12.47;100.00
32933;BME280;19444;50.518;10.870;2022-09-09T05:44:05;96149.47;;;12.38;100.00
32933;BME280;19444;50.518;10.870;2022-09-09T05:47:03;96145.41;;;12.73;100.00
32933;BME280;19444;50.518;10.870;2022-09-09T05:50:00;96140.81;;;12.74;100.00
32933;BME280;19444;50.518;10.870;2022-09-09T05:52:56;96133.00;;;12.60;100.00
32933;BME280;19444;50.518;10.870;2022-09-09T05:56:12;96141.47;;;12.71;100.00
32933;BME280;19444;50.518;10.870;2022-09-09T05:59:10;96123.19;;;12.97;100.00
32933;BME280;19444;50.518;10.870;2022-09-09T06:02:09;96135.22;;;12.79;100.00
32933;BME280;19444;50.518;10.870;2022-09-09T06:05:06;96132.75;;;12.74;100.00
32933;BME280;19444;50.518;10.870;2022-09-09T06:08:05;96145.97;;;12.79;100.00
32933;BME280;19444;50.518;10.870;2022-09-09T06:14:04;96145.97;;;12.79;100.00
32933;BME280;19444;50.518;10.870;2022-09-09T06:17:01;96135.84;;;12.97;100.00
32933;BME280;19444;50.518;10.870;2022-09-09T06:19:59;96120.59;;;13.22;100.00
32933;BME280;19444;50.518;10.870;2022-09-09T06:22:55;96128.38;;;13.48;100.00
32933;BME280;19444;50.518;10.870;2022-09-09T06:29:09;96135.03;;;13.62;100.00
32933;BME280;19444;50.518;10.870;2022-09-09T06:32:06;96145.66;;;13.59;100.00
32933;BME280;19444;50.518;10.870;2022-09-09T06:35:05;96148.69;;;13.70;100.00
32933;BME280;19444;50.518;10.870;2022-09-09T06:38:02;96147.50;;;13.91;100.00
32933;BME280;19444;50.518;10.870;2022-09-09T06:41:00;96147.38;;;14.12;100.00
32933;BME280;19444;50.518;10.870;2022-09-09T06:43:58;96152.38;;;14.26;100.00
32933;BME280;19444;50.518;10.870;2022-09-09T06:46:55;96151.84;;;14.20;100.00
32933;BME280;19444;50.518;10.870;2022-09-09T06:49:52;96150.06;;;14.12;100.00
32933;BME280;19444;50.518;10.870;2022-09-09T06:52:49;96152.72;;;14.24;100.00
32933;BME280;19444;50.518;10.870;2022-09-09T06:55:46;96161.06;;;14.19;100.00
32933;BME280;19444;50.518;10.870;2022-09-09T06:58:43;96152.06;;;14.15;100.00
32933;BME280;19444;50.518;10.870;2022-09-09T07:01:42;96151.84;;;14.20;100.00
32933;BME280;19444;50.518;10.870;2022-09-09T07:04:51;96167.78;;;14.26;100.00
32933;BME280;19444;50.518;10.870;2022-09-09T07:07:48;96163.16;;;14.26;100.00
32933;BME280;19444;50.518;10.870;2022-09-09T07:10:45;96176.09;;;14.20;100.00
32933;BME280;19444;50.518;10.870;2022-09-09T07:13:41;96166.00;;;14.17;100.00
32933;BME280;19444;50.518;10.870;2022-09-09T07:16:38;96176.31;;;14.28;100.00
32933;BME280;19444;50.518;10.870;2022-09-09T07:19:36;96174.63;;;14.23;100.00
32933;BME280;19444;50.518;10.870;2022-09-09T07:22:33;96171.72;;;14.28;100.00
32933;BME280;19444;50.518;10.870;2022-09-09T07:25:30;96175.97;;;14.17;100.00
32933;BME280;19444;50.518;10.870;2022-09-09T07:28:27;96172.63;;;14.20;100.00
32933;BME280;19444;50.518;10.870;2022-09-09T07:31:29;96183.38;;;14.32;100.00
32933;BME280;19444;50.518;10.870;2022-09-09T07:34:27;96187.09;;;14.40;100.00
32933;BME280;19444;50.518;10.870;2022-09-09T07:37:24;96183.94;;;14.50;100.00
32933;BME280;19444;50.518;10.870;2022-09-09T07:40:21;96189.00;;;14.64;100.00
32933;BME280;19444;50.518;10.870;2022-09-09T07:43:18;96187.50;;;14.66;100.00
32933;BME280;19444;50.518;10.870;2022-09-09T07:46:18;96179.63;;;14.73;100.00
32933;BME280;19444;50.518;10.870;2022-09-09T07:49:16;96174.63;;;14.88;100.00
32933;BME280;19444;50.518;10.870;2022-09-09T07:52:22;96172.56;;;14.97;100.00
32933;BME280;19444;50.518;10.870;2022-09-09T07:55:20;96178.81;;;14.85;100.00
32933;BME280;19444;50.518;10.870;2022-09-09T07:58:16;96176.06;;;14.97;100.00
32933;BME280;19444;50.518;10.870;2022-09-09T08:01:27;96176.34;;;15.08;100.00
32933;BME280;19444;50.518;10.870;2022-09-09T08:04:26;96190.63;;;15.08;100.00
32933;BME280;19444;50.518;10.870;2022-09-09T08:07:24;96178.09;;;15.00;100.00
32933;BME280;19444;50.518;10.870;2022-09-09T08:10:21;96188.91;;;14.88;100.00
32933;BME280;19444;50.518;10.870;2022-09-09T08:13:18;96181.72;;;14.92;100.00
32933;BME280;19444;50.518;10.870;2022-09-09T08:16:19;96192.16;;;14.94;100.00
32933;BME280;19444;50.518;10.870;2022-09-09T08:19:18;96195.09;;;14.89;100.00
32933;BME280;19444;50.518;10.870;2022-09-09T08:22:15;96182.88;;;14.79;100.00
32933;BME280;19444;50.518;10.870;2022-09-09T08:25:12;96192.00;;;14.74;100.00
32933;BME280;19444;50.518;10.870;2022-09-09T08:28:09;96198.38;;;14.82;100.00
32933;BME280;19444;50.518;10.870;2022-09-09T08:31:15;96191.50;;;14.85;100.00
32933;BME280;19444;50.518;10.870;2022-09-09T08:34:14;96194.22;;;14.85;100.00
32933;BME280;19444;50.518;10.870;2022-09-09T08:37:11;96198.13;;;14.87;100.00
32933;BME280;19444;50.518;10.870;2022-09-09T08:40:29;96198.72;;;15.08;100.00
32933;BME280;19444;50.518;10.870;2022-09-09T08:43:31;96203.94;;;15.01;100.00
32933;BME280;19444;50.518;10.870;2022-09-09T08:50:36;96206.16;;;15.12;100.00
32933;BME280;19444;50.518;10.870;2022-09-09T08:53:45;96200.06;;;15.15;100.00
32933;BME280;19444;50.518;10.870;2022-09-09T08:56:44;96199.34;;;15.18;100.00
32933;BME280;19444;50.518;10.870;2022-09-09T08:59:41;96217.28;;;15.10;100.00
32933;BME280;19444;50.518;10.870;2022-09-09T09:12:43;96211.22;;;15.57;100.00
32933;BME280;19444;50.518;10.870;2022-09-09T09:15:42;96207.59;;;15.65;100.00
32933;BME280;19444;50.518;10.870;2022-09-09T09:18:40;96204.38;;;15.75;100.00
32933;BME280;19444;50.518;10.870;2022-09-09T09:21:43;96194.41;;;16.42;100.00
32933;BME280;19444;50.518;10.870;2022-09-09T09:28:03;96188.88;;;16.04;100.00
32933;BME280;19444;50.518;10.870;2022-09-09T09:31:10;96197.03;;;16.23;100.00
32933;BME280;19444;50.518;10.870;2022-09-09T09:34:08;96191.63;;;16.39;100.00
32933;BME280;19444;50.518;10.870;2022-09-09T09:37:27;96181.75;;;16.46;100.00
32933;BME280;19444;50.518;10.870;2022-09-09T09:40:25;96187.09;;;16.62;100.00
32933;BME280;19444;50.518;10.870;2022-09-09T09:43:34;96186.31;;;16.77;100.00
32933;BME280;19444;50.518;10.870;2022-09-09T09:46:32;96187.19;;;16.66;100.00
32933;BME280;19444;50.518;10.870;2022-09-09T09:49:29;96183.16;;;16.75;100.00
32933;BME280;19444;50.518;10.870;2022-09-09T09:52:31;96192.72;;;16.89;100.00
32933;BME280;19444;50.518;10.870;2022-09-09T09:55:31;96188.81;;;16.86;100.00
32933;BME280;19444;50.518;10.870;2022-09-09T09:58:48;96185.88;;;16.75;100.00
32933;BME280;19444;50.518;10.870;2022-09-09T10:01:46;96176.63;;;16.96;100.00
32933;BME280;19444;50.518;10.870;2022-09-09T10:04:44;96173.69;;;17.04;100.00
32933;BME280;19444;50.518;10.870;2022-09-09T10:07:44;96163.81;;;17.35;100.00
32933;BME280;19444;50.518;10.870;2022-09-09T10:14:19;96154.38;;;18.70;100.00
32933;BME280;19444;50.518;10.870;2022-09-09T10:24:15;96168.31;;;18.15;100.00
32933;BME280;19444;50.518;10.870;2022-09-09T10:31:20;96151.69;;;18.17;100.00
32933;BME280;19444;50.518;10.870;2022-09-09T10:34:58;96129.97;;;18.70;100.00
32933;BME280;19444;50.518;10.870;2022-09-09T10:38:13;96135.81;;;19.06;100.00
32933;BME280;19444;50.518;10.870;2022-09-09T10:48:23;96137.81;;;19.90;100.00
32933;BME280;19444;50.518;10.870;2022-09-09T10:51:36;96127.00;;;20.52;100.00
32933;BME280;19444;50.518;10.870;2022-09-09T10:58:03;96136.00;;;18.60;100.00
32933;BME280;19444;50.518;10.870;2022-09-09T11:01:13;96140.91;;;18.51;100.00
32933;BME280;19444;50.518;10.870;2022-09-09T11:04:24;96134.16;;;18.11;100.00
32933;BME280;19444;50.518;10.870;2022-09-09T11:07:37;96141.19;;;18.15;100.00
32933;BME280;19444;50.518;10.870;2022-09-09T11:10:58;96149.97;;;18.05;100.00
32933;BME280;19444;50.518;10.870;2022-09-09T11:14:41;96145.44;;;17.90;100.00
32933;BME280;19444;50.518;10.870;2022-09-09T11:17:49;96141.19;;;18.42;100.00
32933;BME280;19444;50.518;10.870;2022-09-09T11:20:53;96131.53;;;18.71;100.00
32933;BME280;19444;50.518;10.870;2022-09-09T11:23:58;96132.09;;;18.57;100.00
32933;BME280;19444;50.518;10.870;2022-09-09T11:27:19;96129.78;;;18.29;100.00
32933;BME280;19444;50.518;10.870;2022-09-09T11:40:43;96137.00;;;19.08;100.00
32933;BME280;19444;50.518;10.870;2022-09-09T11:43:47;96137.91;;;18.86;100.00
32933;BME280;19444;50.518;10.870;2022-09-09T11:46:47;96140.75;;;18.96;100.00
32933;BME280;19444;50.518;10.870;2022-09-09T11:49:46;96124.34;;;18.86;100.00
32933;BME280;19444;50.518;10.870;2022-09-09T11:52:46;96129.19;;;18.69;100.00
32933;BME280;19444;50.518;10.870;2022-09-09T11:55:43;96122.69;;;18.47;100.00
32933;BME280;19444;50.518;10.870;2022-09-09T11:58:44;96130.94;;;18.58;100.00
32933;BME280;19444;50.518;10.870;2022-09-09T12:01:43;96136.91;;;18.67;100.00
32933;BME280;19444;50.518;10.870;2022-09-09T12:04:49;96131.00;;;18.35;100.00
32933;BME280;19444;50.518;10.870;2022-09-09T12:07:56;96135.88;;;18.49;100.00
32933;BME280;19444;50.518;10.870;2022-09-09T12:10:56;96134.25;;;18.44;100.00
32933;BME280;19444;50.518;10.870;2022-09-09T12:13:59;96142.75;;;18.16;100.00
32933;BME280;19444;50.518;10.870;2022-09-09T12:26:41;96155.28;;;17.75;100.00
32933;BME280;19444;50.518;10.870;2022-09-09T12:30:08;96171.03;;;17.47;100.00
32933;BME280;19444;50.518;10.870;2022-09-09T12:33:13;96189.34;;;17.34;100.00
32933;BME280;19444;50.518;10.870;2022-09-09T12:36:19;96211.19;;;17.02;100.00
32933;BME280;19444;50.518;10.870;2022-09-09T12:39:37;96196.78;;;16.63;100.00
32933;BME280;19444;50.518;10.870;2022-09-09T12:42:40;96199.94;;;16.14;100.00
32933;BME280;19444;50.518;10.870;2022-09-09T12:45:40;96196.97;;;16.55;100.00
32933;BME280;19444;50.518;10.870;2022-09-09T12:48:40;96193.28;;;16.98;100.00
32933;BME280;19444;50.518;10.870;2022-09-09T12:51:43;96197.63;;;17.22;100.00
32933;BME280;19444;50.518;10.870;2022-09-09T12:54:45;96196.63;;;16.91;100.00
32933;BME280;19444;50.518;10.870;2022-09-09T12:57:48;96191.72;;;16.77;100.00
32933;BME280;19444;50.518;10.870;2022-09-09T13:00:53;96180.19;;;17.19;100.00
32933;BME280;19444;50.518;10.870;2022-09-09T13:03:53;96159.94;;;18.01;100.00
32933;BME280;19444;50.518;10.870;2022-09-09T13:06:50;96159.81;;;18.43;100.00
32933;BME280;19444;50.518;10.870;2022-09-09T13:09:49;96152.31;;;18.33;100.00
32933;BME280;19444;50.518;10.870;2022-09-09T13:12:46;96153.19;;;18.67;100.00
32933;BME280;19444;50.518;10.870;2022-09-09T13:15:55;96145.81;;;18.98;100.00
32933;BME280;19444;50.518;10.870;2022-09-09T13:18:53;96137.88;;;19.16;100.00
32933;BME280;19444;50.518;10.870;2022-09-09T13:21:50;96133.34;;;18.93;100.00
32933;BME280;19444;50.518;10.870;2022-09-09T13:24:47;96130.19;;;18.88;100.00
32933;BME280;19444;50.518;10.870;2022-09-09T13:28:02;96131.97;;;19.47;100.00
32933;BME280;19444;50.518;10.870;2022-09-09T13:31:05;96118.44;;;19.14;100.00
32933;BME280;19444;50.518;10.870;2022-09-09T13:34:29;96124.06;;;19.69;100.00
32933;BME280;19444;50.518;10.870;2022-09-09T13:37:36;96122.19;;;18.68;100.00
32933;BME280;19444;50.518;10.870;2022-09-09T13:40:33;96114.44;;;18.14;100.00
32933;BME280;19444;50.518;10.870;2022-09-09T13:43:37;96113.00;;;18.20;100.00
32933;BME280;19444;50.518;10.870;2022-09-09T13:46:37;96108.13;;;18.93;100.00
32933;BME280;19444;50.518;10.870;2022-09-09T13:49:34;96108.16;;;19.33;100.00
32933;BME280;19444;50.518;10.870;2022-09-09T13:52:31;96104.66;;;19.29;100.00
32933;BME280;19444;50.518;10.870;2022-09-09T13:55:29;96091.25;;;19.51;100.00
32933;BME280;19444;50.518;10.870;2022-09-09T13:58:26;96094.94;;;19.73;100.00
32933;BME280;19444;50.518;10.870;2022-09-09T14:01:23;96100.28;;;19.62;100.00
32933;BME280;19444;50.518;10.870;2022-09-09T14:04:25;96093.19;;;19.50;100.00
32933;BME280;19444;50.518;10.870;2022-09-09T14:07:22;96090.41;;;19.43;100.00
32933;BME280;19444;50.518;10.870;2022-09-09T14:10:19;96095.91;;;19.50;100.00
32933;BME280;19444;50.518;10.870;2022-09-09T14:13:16;96092.78;;;19.48;100.00
32933;BME280;19444;50.518;10.870;2022-09-09T14:16:13;96079.31;;;19.59;100.00
32933;BME280;19444;50.518;10.870;2022-09-09T14:19:12;96074.16;;;19.95;100.00
32933;BME280;19444;50.518;10.870;2022-09-09T14:22:09;96073.69;;;19.85;100.00
32933;BME280;19444;50.518;10.870;2022-09-09T14:25:06;96081.88;;;19.89;100.00
32933;BME280;19444;50.518;10.870;2022-09-09T14:28:04;96075.25;;;19.90;100.00
32933;BME280;19444;50.518;10.870;2022-09-09T14:31:02;96071.97;;;20.22;100.00
32933;BME280;19444;50.518;10.870;2022-09-09T14:34:00;96071.72;;;19.82;100.00
32933;BME280;19444;50.518;10.870;2022-09-09T14:36:57;96072.13;;;20.43;100.00
32933;BME280;19444;50.518;10.870;2022-09-09T14:39:54;96065.34;;;20.15;100.00
32933;BME280;19444;50.518;10.870;2022-09-09T14:42:53;96065.88;;;19.84;100.00
32933;BME280;19444;50.518;10.870;2022-09-09T14:45:50;96061.47;;;19.65;100.00
32933;BME280;19444;50.518;10.870;2022-09-09T14:48:48;96065.09;;;19.83;100.00
32933;BME280;19444;50.518;10.870;2022-09-09T14:51:45;96071.50;;;20.09;100.00
32933;BME280;19444;50.518;10.870;2022-09-09T14:54:42;96063.72;;;20.04;98.00
32933;BME280;19444;50.518;10.870;2022-09-09T14:57:39;96061.66;;;19.86;100.00
32933;BME280;19444;50.518;10.870;2022-09-09T15:00:36;96065.31;;;20.12;98.43
32933;BME280;19444;50.518;10.870;2022-09-09T15:03:33;96068.31;;;19.48;92.23
32933;BME280;19444;50.518;10.870;2022-09-09T15:06:34;96070.91;;;19.78;88.68
32933;BME280;19444;50.518;10.870;2022-09-09T15:09:33;96079.53;;;19.91;98.34
32933;BME280;19444;50.518;10.870;2022-09-09T15:12:30;96072.16;;;19.47;92.48
32933;BME280;19444;50.518;10.870;2022-09-09T15:15:28;96069.63;;;19.65;96.85
32933;BME280;19444;50.518;10.870;2022-09-09T15:18:25;96068.41;;;19.18;94.12
32933;BME280;19444;50.518;10.870;2022-09-09T15:21:25;96071.13;;;19.18;95.96
32933;BME280;19444;50.518;10.870;2022-09-09T15:24:22;96070.81;;;19.23;93.65
32933;BME280;19444;50.518;10.870;2022-09-09T15:27:19;96067.63;;;19.14;94.39
32933;BME280;19444;50.518;10.870;2022-09-09T15:30:16;96064.53;;;19.16;93.81
32933;BME280;19444;50.518;10.870;2022-09-09T15:33:13;96073.09;;;19.58;96.78
32933;BME280;19444;50.518;10.870;2022-09-09T15:36:18;96060.97;;;19.52;97.65
32933;BME280;19444;50.518;10.870;2022-09-09T15:39:17;96067.63;;;19.18;100.00
32933;BME280;19444;50.518;10.870;2022-09-09T15:42:14;96070.53;;;19.36;94.72
32933;BME280;19444;50.518;10.870;2022-09-09T15:45:11;96074.63;;;19.19;100.00
32933;BME280;19444;50.518;10.870;2022-09-09T15:48:09;96066.47;;;18.78;98.89
32933;BME280;19444;50.518;10.870;2022-09-09T15:51:05;96069.81;;;19.01;100.00
32933;BME280;19444;50.518;10.870;2022-09-09T15:54:24;96068.94;;;18.60;100.00
32933;BME280;19444;50.518;10.870;2022-09-09T15:57:21;96075.63;;;18.66;100.00
32933;BME280;19444;50.518;10.870;2022-09-09T16:00:20;96062.31;;;18.88;100.00
32933;BME280;19444;50.518;10.870;2022-09-09T16:03:17;96064.81;;;19.03;100.00
32933;BME280;19444;50.518;10.870;2022-09-09T16:06:15;96064.34;;;18.98;100.00
32933;BME280;19444;50.518;10.870;2022-09-09T16:09:12;96060.56;;;18.72;100.00
32933;BME280;19444;50.518;10.870;2022-09-09T16:12:09;96063.22;;;18.65;100.00
32933;BME280;19444;50.518;10.870;2022-09-09T16:15:08;96062.50;;;18.72;100.00
32933;BME280;19444;50.518;10.870;2022-09-09T16:18:05;96073.41;;;18.45;100.00
32933;BME280;19444;50.518;10.870;2022-09-09T16:21:03;96072.25;;;18.46;100.00
32933;BME280;19444;50.518;10.870;2022-09-09T16:24:03;96075.06;;;18.54;100.00
32933;BME280;19444;50.518;10.870;2022-09-09T16:27:01;96067.97;;;18.45;100.00
32933;BME280;19444;50.518;10.870;2022-09-09T16:29:58;96078.00;;;18.41;100.00
32933;BME280;19444;50.518;10.870;2022-09-09T16:32:54;96079.16;;;18.40;100.00
32933;BME280;19444;50.518;10.870;2022-09-09T16:35:51;96076.16;;;18.19;100.00
32933;BME280;19444;50.518;10.870;2022-09-09T16:38:51;96077.91;;;18.04;100.00
32933;BME280;19444;50.518;10.870;2022-09-09T16:41:49;96085.19;;;18.00;100.00
32933;BME280;19444;50.518;10.870;2022-09-09T16:44:46;96085.75;;;17.86;100.00
32933;BME280;19444;50.518;10.870;2022-09-09T16:47:43;96090.44;;;18.16;100.00
32933;BME280;19444;50.518;10.870;2022-09-09T16:50:41;96100.22;;;17.94;100.00
32933;BME280;19444;50.518;10.870;2022-09-09T16:53:38;96102.16;;;17.94;100.00
32933;BME280;19444;50.518;10.870;2022-09-09T16:56:38;96104.94;;;18.01;100.00
32933;BME280;19444;50.518;10.870;2022-09-09T16:59:37;96109.28;;;18.05;100.00
32933;BME280;19444;50.518;10.870;2022-09-09T17:02:34;96108.09;;;18.03;100.00
32933;BME280;19444;50.518;10.870;2022-09-09T17:05:31;96104.59;;;18.02;100.00
32933;BME280;19444;50.518;10.870;2022-09-09T17:08:29;96109.50;;;17.93;100.00